Time;durP1;ratioP1;P1;durP2;ratioP2;P2;SDS_P1;SDS_P2;PMS_P1;PMS_P2;Temp;Humidity;BMP_temperature;BMP_pressure;BME280_temperature;BME280_humidity;BME280_pressure;Samples;Min_cycle;Max_cycle;Signal;HPM_P1;HPM_P2
2023/08/06 00:01:25;;;;;;;4.18;2.50;;;;;;;21.20;62.95;93854.13;5090006;28;20513;-77
2023/08/06 00:03:50;;;;;;;4.28;2.45;;;;;;;21.21;63.24;93838.88;5088106;28;20027;-79
2023/08/06 00:06:16;;;;;;;3.65;2.63;;;;;;;21.24;63.06;93867.78;5088621;28;20628;-77
2023/08/06 00:08:41;;;;;;;4.05;2.47;;;;;;;21.26;63.18;93902.28;5086348;28;20067;-77
2023/08/06 00:11:07;;;;;;;4.65;2.75;;;;;;;21.29;63.56;93908.88;5089944;28;20020;-78
2023/08/06 00:13:32;;;;;;;3.65;2.38;;;;;;;21.33;63.13;93903.75;5088211;28;20055;-78
2023/08/06 00:16:18;;;;;;;4.28;2.53;;;;;;;21.37;62.76;93912.59;5089587;28;20027;-78
2023/08/06 00:18:43;;;;;;;4.28;2.63;;;;;;;21.38;62.89;93908.50;5089108;28;20029;-79
2023/08/06 00:21:08;;;;;;;5.50;2.72;;;;;;;21.37;62.55;93879.78;5086465;28;20145;-78
2023/08/06 00:23:34;;;;;;;5.10;2.60;;;;;;;21.41;63.11;93880.25;5088158;28;20023;-77
2023/08/06 00:25:59;;;;;;;4.53;2.88;;;;;;;21.45;62.76;93888.31;5086501;28;20024;-78
2023/08/06 00:28:25;;;;;;;4.50;3.03;;;;;;;21.46;62.72;93898.22;5089463;28;20024;-78
2023/08/06 00:30:54;;;;;;;5.50;2.45;;;;;;;21.48;63.18;93898.41;5088028;28;20016;-78
2023/08/06 00:33:20;;;;;;;3.95;2.95;;;;;;;21.46;62.65;93873.81;5088720;28;20486;-78
2023/08/06 00:35:46;;;;;;;4.25;2.63;;;;;;;21.48;62.63;93865.63;5088941;28;20020;-77
2023/08/06 00:38:12;;;;;;;6.75;3.30;;;;;;;21.46;63.06;93861.88;5087832;28;20110;-78
2023/08/06 00:40:37;;;;;;;3.80;2.53;;;;;;;21.45;62.53;93863.16;5089290;28;20023;-78
2023/08/06 00:43:02;;;;;;;3.25;2.63;;;;;;;21.45;62.26;93860.38;5086039;28;20157;-79
2023/08/06 00:45:29;;;;;;;3.33;2.47;;;;;;;21.43;62.65;93860.13;5089333;28;20036;-78
2023/08/06 00:47:55;;;;;;;4.28;2.65;;;;;;;21.45;62.27;93861.13;5069145;28;20430;-78
2023/08/06 00:50:22;;;;;;;4.18;2.72;;;;;;;21.44;62.49;93865.19;5088681;28;20512;-78
2023/08/06 00:52:48;;;;;;;4.15;2.90;;;;;;;21.42;62.46;93870.56;5087019;28;20119;-78
2023/08/06 00:55:14;;;;;;;5.72;2.70;;;;;;;21.41;62.51;93854.31;5086869;28;20027;-78
2023/08/06 00:57:39;;;;;;;4.68;2.83;;;;;;;21.44;62.53;93847.66;5087841;28;20398;-78
2023/08/06 01:00:05;;;;;;;3.97;2.78;;;;;;;21.39;62.19;93849.28;5087574;28;20485;-80
2023/08/06 01:02:30;;;;;;;3.60;2.65;;;;;;;21.41;62.54;93849.50;5087591;28;20521;-80
2023/08/06 01:04:56;;;;;;;4.28;2.70;;;;;;;21.41;62.56;93834.75;5085659;28;20040;-79
2023/08/06 01:07:49;;;;;;;3.55;2.70;;;;;;;21.40;62.78;93842.41;5088777;28;20027;-80
2023/08/06 01:10:33;;;;;;;5.05;3.00;;;;;;;21.40;63.45;93820.03;5087292;28;20468;-80
2023/08/06 01:12:59;;;;;;;4.68;3.20;;;;;;;21.38;62.65;93814.19;5086983;28;20100;-79
2023/08/06 01:15:47;;;;;;;3.88;2.80;;;;;;;21.38;62.56;93822.59;5088952;28;20454;-80
2023/08/06 01:18:13;;;;;;;4.32;2.90;;;;;;;21.36;62.69;93818.84;5087355;28;20039;-79
2023/08/06 01:20:38;;;;;;;3.83;2.63;;;;;;;21.37;62.69;93823.13;5086798;28;20028;-80
2023/08/06 01:23:04;;;;;;;4.82;2.65;;;;;;;21.42;63.19;93820.25;5088133;28;20032;-80
2023/08/06 01:25:50;;;;;;;4.65;2.80;;;;;;;21.42;62.53;93820.25;5085919;28;20077;-79
2023/08/06 01:28:25;;;;;;;4.63;3.00;;;;;;;21.40;62.52;93819.28;5087453;28;20027;-79
2023/08/06 01:30:50;;;;;;;6.38;2.78;;;;;;;21.40;62.40;93825.63;5085214;28;20028;-79
2023/08/06 01:33:19;;;;;;;5.28;3.10;;;;;;;21.36;62.85;93814.00;5087416;28;20032;-79
2023/08/06 01:35:45;;;;;;;4.88;2.72;;;;;;;21.35;62.38;93806.16;5087272;28;20020;-79
2023/08/06 01:38:11;;;;;;;3.75;2.90;;;;;;;21.35;62.49;93803.34;5086407;28;20020;-79
2023/08/06 01:40:36;;;;;;;6.10;2.72;;;;;;;21.38;62.28;93789.03;5069821;28;20091;-79
2023/08/06 01:43:02;;;;;;;4.07;2.58;;;;;;;21.38;62.67;93796.69;5086617;28;20035;-79
2023/08/06 01:45:27;;;;;;;5.03;2.50;;;;;;;21.36;62.75;93802.81;5087077;28;20404;-79
2023/08/06 01:47:52;;;;;;;4.53;2.97;;;;;;;21.30;62.69;93807.00;5086565;28;20032;-79
2023/08/06 01:50:18;;;;;;;4.20;2.80;;;;;;;21.31;62.88;93800.88;5088250;28;20052;-79
2023/08/06 01:52:44;;;;;;;4.55;3.10;;;;;;;21.31;62.53;93805.72;5068304;28;20024;-79
2023/08/06 01:55:09;;;;;;;4.35;2.95;;;;;;;21.30;63.09;93810.53;5086469;28;20024;-78
2023/08/06 01:57:35;;;;;;;3.97;2.53;;;;;;;21.33;63.16;93811.50;5086202;28;20513;-78
2023/08/06 02:00:00;;;;;;;4.60;2.65;;;;;;;21.32;62.84;93798.81;5086428;28;20031;-78
2023/08/06 02:02:25;;;;;;;3.88;3.10;;;;;;;21.28;63.33;93785.16;5087807;28;20016;-78
2023/08/06 02:04:51;;;;;;;7.05;3.13;;;;;;;21.27;62.99;93786.41;5085872;28;20478;-78
2023/08/06 02:07:16;;;;;;;5.60;3.13;;;;;;;21.33;63.49;93784.31;5087995;28;20020;-79
2023/08/06 02:09:42;;;;;;;4.55;3.25;;;;;;;21.29;63.51;93786.69;5085702;28;20119;-78
2023/08/06 02:12:07;;;;;;;4.88;2.90;;;;;;;21.27;63.60;93782.88;5087662;28;20024;-79
2023/08/06 02:14:33;;;;;;;4.10;2.95;;;;;;;21.27;63.41;93782.88;5086730;28;20111;-79
2023/08/06 02:16:58;;;;;;;3.53;2.92;;;;;;;21.30;63.69;93779.06;5086971;28;20024;-79
2023/08/06 02:19:24;;;;;;;4.15;2.67;;;;;;;21.31;63.49;93775.72;5086029;28;20028;-78
2023/08/06 02:21:49;;;;;;;4.30;2.80;;;;;;;21.31;63.54;93800.13;5085521;28;20055;-79
2023/08/06 02:24:15;;;;;;;7.65;3.55;;;;;;;21.31;63.82;93811.28;5087579;28;20229;-78
2023/08/06 02:26:40;;;;;;;5.72;3.10;;;;;;;21.27;63.36;93816.41;5085412;28;20466;-78
2023/08/06 02:29:05;;;;;;;7.28;3.78;;;;;;;21.01;64.80;93819.91;5087657;28;20024;-78
2023/08/06 02:31:31;;;;;;;5.57;3.47;;;;;;;20.82;66.16;93800.41;5085763;28;20212;-77
2023/08/06 02:33:58;;;;;;;6.63;3.53;;;;;;;20.61;66.45;93781.41;5085175;28;20157;-77
2023/08/06 02:36:23;;;;;;;10.15;4.10;;;;;;;20.61;67.90;93764.66;5086780;28;20055;-77
2023/08/06 02:38:49;;;;;;;6.45;3.92;;;;;;;20.64;68.21;93791.53;5084429;28;20064;-76
2023/08/06 02:41:14;;;;;;;7.22;3.60;;;;;;;20.69;67.74;93826.97;5087544;28;20081;-77
2023/08/06 02:43:40;;;;;;;5.90;4.00;;;;;;;20.70;68.33;93847.25;5085180;28;20027;-77
2023/08/06 02:46:05;;;;;;;6.95;4.00;;;;;;;20.65;66.86;93856.50;5087045;28;20024;-76
2023/08/06 02:48:31;;;;;;;6.22;3.80;;;;;;;20.64;67.43;93829.84;5084097;28;20028;-77
2023/08/06 02:50:59;;;;;;;6.50;3.30;;;;;;;20.68;67.87;93821.91;5085112;28;20034;-77
2023/08/06 02:53:25;;;;;;;4.65;3.20;;;;;;;20.67;67.46;93812.78;5084587;28;20032;-78
2023/08/06 02:55:51;;;;;;;4.80;2.90;;;;;;;20.73;67.31;93807.13;5084606;28;20031;-78
2023/08/06 02:58:17;;;;;;;5.95;3.38;;;;;;;20.73;67.84;93784.78;5085538;28;20016;-77
2023/08/06 03:00:43;;;;;;;5.10;2.97;;;;;;;20.77;67.17;93759.34;5066769;28;20509;-79
2023/08/06 03:03:09;;;;;;;4.82;2.88;;;;;;;20.76;66.73;93772.56;5085489;28;20027;-77
2023/08/06 03:05:35;;;;;;;5.35;3.15;;;;;;;20.77;67.45;93793.59;5083803;28;20036;-77
2023/08/06 03:08:00;;;;;;;6.60;2.97;;;;;;;20.77;67.75;93778.91;5068348;28;20545;-78
2023/08/06 03:10:26;;;;;;;4.65;2.97;;;;;;;20.77;68.12;93734.22;5085478;28;20032;-79
2023/08/06 03:12:51;;;;;;;4.18;3.03;;;;;;;20.75;67.20;93712.38;5084438;28;20020;-78
2023/08/06 03:15:16;;;;;;;5.18;2.95;;;;;;;20.73;67.34;93740.09;5086588;28;20039;-78
2023/08/06 03:17:42;;;;;;;6.68;3.20;;;;;;;20.73;67.76;93773.59;5085448;28;20099;-78
2023/08/06 03:20:07;;;;;;;5.53;3.28;;;;;;;20.79;67.29;93759.56;5086687;28;20031;-78
2023/08/06 03:22:33;;;;;;;5.60;2.85;;;;;;;20.79;66.74;93724.00;5084713;28;20462;-79
2023/08/06 03:24:58;;;;;;;7.15;2.97;;;;;;;20.81;66.98;93735.38;5086592;28;20032;-78
2023/08/06 03:27:24;;;;;;;5.97;2.80;;;;;;;20.82;67.30;93773.22;5083468;28;20124;-78
2023/08/06 03:29:53;;;;;;;3.42;2.70;;;;;;;20.84;67.54;93781.06;5086372;28;20119;-78
2023/08/06 03:32:18;;;;;;;3.92;2.80;;;;;;;20.86;67.93;93758.94;5085662;28;20020;-79
2023/08/06 03:34:43;;;;;;;4.68;3.00;;;;;;;20.89;67.08;93767.00;5083934;28;20031;-78
2023/08/06 03:37:09;;;;;;;4.72;3.40;;;;;;;20.91;67.32;93788.81;5086273;28;20028;-78
2023/08/06 03:39:34;;;;;;;4.60;2.97;;;;;;;20.83;66.60;93807.50;5084762;28;20028;-79
2023/08/06 03:42:00;;;;;;;5.43;3.00;;;;;;;20.77;66.62;93804.78;5086303;28;20038;-78
2023/08/06 03:44:26;;;;;;;5.63;3.28;;;;;;;20.66;67.71;93799.34;5084628;28;20028;-78
2023/08/06 03:46:52;;;;;;;4.20;3.10;;;;;;;20.67;67.59;93810.00;5086170;28;20467;-79
2023/08/06 03:49:17;;;;;;;4.53;3.15;;;;;;;20.67;67.51;93803.66;5083598;28;20016;-78
2023/08/06 03:51:43;;;;;;;6.22;3.38;;;;;;;20.61;67.92;93800.94;5085725;28;20024;-78
2023/08/06 03:54:08;;;;;;;4.82;3.50;;;;;;;20.63;68.42;93809.53;5086088;28;20028;-78
2023/08/06 03:56:33;;;;;;;6.97;3.47;;;;;;;20.76;68.96;93820.03;5083641;28;20108;-78
2023/08/06 03:58:59;;;;;;;4.45;3.22;;;;;;;20.79;69.10;93813.38;5086104;28;20371;-79
2023/08/06 04:01:24;;;;;;;5.93;3.50;;;;;;;20.81;68.72;93815.63;5082892;28;20120;-80
2023/08/06 04:03:50;;;;;;;6.43;3.60;;;;;;;20.87;67.96;93816.28;5086045;28;20446;-78
2023/08/06 04:06:15;;;;;;;6.72;3.88;;;;;;;20.83;67.83;93811.03;5084740;28;20047;-78
2023/08/06 04:08:40;;;;;;;6.53;3.45;;;;;;;20.91;68.33;93819.53;5085503;28;20028;-81
2023/08/06 04:11:06;;;;;;;4.57;3.10;;;;;;;20.87;68.22;93819.88;5083926;28;20054;-81
2023/08/06 04:13:31;;;;;;;4.32;3.40;;;;;;;20.95;68.23;93831.16;5085217;28;20044;-80
2023/08/06 04:16:03;;;;;;;5.68;3.88;;;;;;;21.00;68.03;93832.38;5085849;28;20020;-80
2023/08/06 04:18:29;;;;;;;5.43;3.58;;;;;;;21.07;67.61;93837.31;5084535;28;20097;-79
2023/08/06 04:20:55;;;;;;;4.10;3.42;;;;;;;21.04;67.46;93839.13;5085859;28;20498;-79
2023/08/06 04:23:20;;;;;;;4.43;3.50;;;;;;;21.09;67.00;93829.91;5083533;28;20032;-79
2023/08/06 04:25:46;;;;;;;4.32;3.20;;;;;;;21.08;67.02;93822.06;5088316;28;20532;-79
2023/08/06 04:28:11;;;;;;;4.35;3.25;;;;;;;21.14;66.56;93826.28;5070055;28;20035;-79
2023/08/06 04:30:37;;;;;;;4.18;2.95;;;;;;;21.18;66.69;93814.78;5087763;28;20039;-79
2023/08/06 04:33:02;;;;;;;4.95;2.70;;;;;;;21.18;66.69;93807.16;5089682;28;20447;-79
2023/08/06 04:35:28;;;;;;;8.35;3.50;;;;;;;21.19;66.75;93803.06;5088385;28;20526;-79
2023/08/06 04:37:53;;;;;;;8.82;5.32;;;;;;;21.20;67.05;93801.78;5089444;28;20053;-79
2023/08/06 04:40:19;;;;;;;6.13;3.65;;;;;;;21.20;66.97;93810.16;5087603;28;20043;-79
2023/08/06 04:42:44;;;;;;;4.47;3.00;;;;;;;21.22;66.94;93801.28;5089142;28;20103;-79
2023/08/06 04:45:09;;;;;;;4.53;3.10;;;;;;;21.24;66.58;93784.72;5087901;28;20107;-79
2023/08/06 04:47:35;;;;;;;4.25;3.10;;;;;;;21.30;66.65;93776.25;5087726;28;20032;-80
2023/08/06 04:50:01;;;;;;;5.43;2.88;;;;;;;21.33;66.54;93764.00;5088667;28;20031;-80
2023/08/06 04:52:28;;;;;;;3.58;2.90;;;;;;;21.34;66.36;93765.53;5088296;28;20410;-80
2023/08/06 04:54:54;;;;;;;4.25;2.35;;;;;;;21.36;66.08;93758.09;5089001;28;20024;-81
2023/08/06 04:57:19;;;;;;;4.38;2.88;;;;;;;21.34;65.89;93757.88;5087760;28;20051;-81
2023/08/06 04:59:45;;;;;;;3.38;2.42;;;;;;;21.32;65.96;93748.50;5088958;28;20488;-80
2023/08/06 05:02:10;;;;;;;4.07;2.90;;;;;;;21.32;65.51;93743.69;5087738;28;20024;-81
2023/08/06 05:04:36;;;;;;;4.15;2.70;;;;;;;21.26;65.94;93740.19;5089237;28;20073;-81
2023/08/06 05:07:01;;;;;;;6.57;3.20;;;;;;;21.25;66.34;93746.34;5087570;28;20414;-82
2023/08/06 05:09:27;;;;;;;4.88;2.88;;;;;;;21.21;66.94;93752.97;5088867;28;20067;-82
2023/08/06 05:11:52;;;;;;;5.65;3.55;;;;;;;21.21;66.91;93755.03;5088275;28;20111;-81
2023/08/06 05:14:17;;;;;;;4.22;3.03;;;;;;;21.25;67.14;93747.09;5087688;28;20020;-80
2023/08/06 05:16:43;;;;;;;4.38;3.13;;;;;;;21.21;67.35;93747.41;5087411;28;20479;-81
2023/08/06 05:19:08;;;;;;;5.10;4.20;;;;;;;21.22;66.81;93753.75;5086895;28;20026;-81
2023/08/06 05:21:33;;;;;;;5.13;4.47;;;;;;;21.22;67.42;93750.97;5088436;28;20021;-80
2023/08/06 05:23:59;;;;;;;5.45;4.65;;;;;;;21.28;67.09;93757.22;5087088;28;20498;-80
2023/08/06 05:26:24;;;;;;;6.25;4.65;;;;;;;21.27;66.83;93764.06;5088336;28;20060;-80
2023/08/06 05:28:49;;;;;;;6.45;5.30;;;;;;;21.28;67.08;93760.00;5087684;28;20478;-80
2023/08/06 05:31:15;;;;;;;6.75;5.93;;;;;;;21.23;66.96;93749.66;5085986;28;20055;-81
2023/08/06 05:33:40;;;;;;;7.03;5.15;;;;;;;21.24;67.44;93753.97;5088010;28;20046;-81
2023/08/06 05:36:06;;;;;;;6.22;4.82;;;;;;;21.34;67.20;93757.13;5085139;28;20062;-81
2023/08/06 05:38:31;;;;;;;5.93;5.00;;;;;;;21.46;66.69;93761.97;5088486;28;20133;-81
2023/08/06 05:40:57;;;;;;;5.78;4.70;;;;;;;21.57;66.19;93754.69;5085118;28;20020;-82
2023/08/06 05:43:22;;;;;;;6.18;4.60;;;;;;;21.64;65.91;93751.22;5088288;28;20031;-81
2023/08/06 05:45:50;;;;;;;5.55;4.43;;;;;;;21.73;65.91;93745.97;5086539;28;20032;-81
2023/08/06 05:48:15;;;;;;;6.40;4.05;;;;;;;21.79;64.75;93742.28;5086637;28;20082;-81
2023/08/06 05:50:40;;;;;;;4.68;3.60;;;;;;;21.86;65.12;93741.66;5086297;28;20028;-81
2023/08/06 05:53:06;;;;;;;3.40;3.00;;;;;;;21.92;64.34;93751.41;5085461;28;20478;-81
2023/08/06 05:55:32;;;;;;;4.60;2.70;;;;;;;22.03;64.15;93752.50;5088133;28;20289;-81
2023/08/06 05:57:58;;;;;;;3.08;2.40;;;;;;;22.05;63.29;93758.28;5085953;28;20031;-81
2023/08/06 06:00:23;;;;;;;3.55;2.50;;;;;;;22.14;63.28;93771.88;5087852;28;20024;-81
2023/08/06 06:02:49;;;;;;;2.80;2.20;;;;;;;22.27;62.06;93777.44;5084944;28;20012;-81
2023/08/06 06:05:14;;;;;;;3.47;2.30;;;;;;;22.30;62.13;93779.13;5086125;28;20046;-81
2023/08/06 06:07:39;;;;;;;2.83;1.70;;;;;;;22.41;61.45;93780.94;5086794;28;20439;-81
2023/08/06 06:10:06;;;;;;;3.30;2.00;;;;;;;22.42;60.31;93782.44;5085226;28;20044;-81
2023/08/06 06:12:31;;;;;;;2.30;1.70;;;;;;;22.43;60.67;93779.13;5086419;28;20085;-81
2023/08/06 06:14:56;;;;;;;3.70;2.10;;;;;;;22.45;60.42;93790.53;5085719;28;20024;-81
2023/08/06 06:17:22;;;;;;;3.70;1.90;;;;;;;22.42;60.77;93790.84;5086240;28;20057;-80
2023/08/06 06:19:47;;;;;;;3.55;2.00;;;;;;;22.45;61.43;93801.72;5085621;28;20106;-80
2023/08/06 06:22:14;;;;;;;2.67;1.83;;;;;;;22.44;61.45;93803.03;5087200;28;20074;-81
2023/08/06 06:24:39;;;;;;;3.17;1.92;;;;;;;22.49;60.94;93816.16;5084730;28;20055;-80
2023/08/06 06:27:05;;;;;;;3.13;1.90;;;;;;;22.48;60.07;93811.84;5085413;28;20514;-80
2023/08/06 06:29:30;;;;;;;2.40;1.83;;;;;;;22.47;60.12;93826.38;5087059;28;20028;-80
2023/08/06 06:31:55;;;;;;;2.92;1.63;;;;;;;22.41;59.57;93826.50;5085845;28;20029;-79
2023/08/06 06:34:22;;;;;;;4.15;2.17;;;;;;;22.49;60.04;93816.16;5087424;28;20027;-80
2023/08/06 06:36:47;;;;;;;3.17;1.80;;;;;;;22.52;59.17;93817.09;5083788;28;20410;-80
2023/08/06 06:39:13;;;;;;;2.00;1.70;;;;;;;22.47;59.16;93821.53;5087193;28;20478;-80
2023/08/06 06:41:38;;;;;;;2.25;1.77;;;;;;;22.50;59.13;93826.06;5085481;28;20374;-80
2023/08/06 06:44:04;;;;;;;3.38;2.20;;;;;;;22.49;59.72;93830.16;5086369;28;20020;-80
2023/08/06 06:46:29;;;;;;;3.25;2.35;;;;;;;22.55;59.44;93846.09;5085857;28;20024;-82
2023/08/06 06:48:54;;;;;;;3.10;2.15;;;;;;;22.53;58.43;93841.00;5085712;28;20024;-80
2023/08/06 06:51:20;;;;;;;3.22;1.88;;;;;;;22.54;59.01;93842.53;5087157;28;20032;-80
2023/08/06 06:53:45;;;;;;;3.10;2.05;;;;;;;22.59;58.23;93836.03;5085177;28;20028;-81
2023/08/06 06:56:10;;;;;;;3.58;1.80;;;;;;;22.61;58.78;93847.47;5087119;28;20474;-80
2023/08/06 06:58:38;;;;;;;3.58;2.20;;;;;;;22.64;57.76;93854.00;5083925;28;20053;-81
2023/08/06 07:01:04;;;;;;;3.35;2.00;;;;;;;22.68;57.43;93860.06;5086500;28;20680;-81
2023/08/06 07:03:29;;;;;;;3.75;1.77;;;;;;;22.72;56.52;93864.03;5085553;28;20406;-81
2023/08/06 07:05:58;;;;;;;5.03;2.70;;;;;;;22.80;56.68;93855.69;5085699;28;20032;-81
2023/08/06 07:08:24;;;;;;;3.42;2.38;;;;;;;22.83;56.55;93865.84;5084665;28;20533;-81
2023/08/06 07:10:49;;;;;;;5.70;2.33;;;;;;;22.89;56.47;93874.16;5085215;28;20020;-81
2023/08/06 07:13:16;;;;;;;3.95;2.75;;;;;;;22.99;56.34;93869.56;5086577;28;20028;-82
2023/08/06 07:15:41;;;;;;;4.65;2.67;;;;;;;23.05;56.04;93873.78;5084327;28;20122;-80
2023/08/06 07:18:07;;;;;;;4.45;2.40;;;;;;;23.12;54.28;93874.38;5068592;28;20044;-80
2023/08/06 07:20:34;;;;;;;4.05;2.63;;;;;;;23.11;54.80;93870.84;5083658;28;20111;-80
2023/08/06 07:23:00;;;;;;;4.93;2.03;;;;;;;23.12;54.23;93868.78;5085859;28;20421;-83
2023/08/06 07:25:25;;;;;;;3.75;2.70;;;;;;;23.18;54.37;93875.00;5084444;28;20481;-81
2023/08/06 07:27:50;;;;;;;4.43;2.83;;;;;;;23.21;54.26;93882.31;5085313;28;20020;-81
2023/08/06 07:30:16;;;;;;;4.18;2.17;;;;;;;23.26;52.61;93881.44;5085006;28;20184;-81
2023/08/06 07:32:42;;;;;;;4.93;2.60;;;;;;;23.29;53.59;93883.16;5084560;28;20032;-81
2023/08/06 07:35:12;;;;;;;4.72;2.58;;;;;;;23.33;53.50;93878.69;5068346;28;20456;-81
2023/08/06 07:37:38;;;;;;;4.57;2.33;;;;;;;23.39;54.02;93872.94;5083549;28;20028;-81
2023/08/06 07:40:04;;;;;;;5.93;2.30;;;;;;;23.45;54.33;93867.22;5084629;28;20027;-81
2023/08/06 07:42:29;;;;;;;3.60;2.10;;;;;;;23.47;54.04;93862.56;5085536;28;20089;-81
2023/08/06 07:44:56;;;;;;;2.90;2.05;;;;;;;23.55;53.77;93862.63;5085081;28;20028;-81
2023/08/06 07:47:21;;;;;;;3.80;2.10;;;;;;;23.53;53.33;93865.22;5086084;28;20016;-81
2023/08/06 07:49:47;;;;;;;3.30;2.08;;;;;;;23.58;53.54;93870.69;5083110;28;20501;-81
2023/08/06 07:52:12;;;;;;;3.15;2.15;;;;;;;23.59;52.70;93866.59;5086194;28;20478;-81
2023/08/06 07:54:38;;;;;;;3.00;2.15;;;;;;;23.58;53.00;93864.34;5083356;28;20024;-81
2023/08/06 07:57:04;;;;;;;2.78;2.08;;;;;;;23.62;52.72;93855.56;5085755;28;20035;-81
2023/08/06 07:59:29;;;;;;;3.92;2.60;;;;;;;23.70;52.80;93859.97;5068792;28;20028;-81
2023/08/06 08:01:54;;;;;;;2.60;2.20;;;;;;;23.67;52.24;93858.25;5089446;28;20110;-81
2023/08/06 08:04:20;;;;;;;3.92;2.05;;;;;;;23.71;52.66;93866.34;5089383;28;20431;-81
2023/08/06 08:06:46;;;;;;;4.07;2.10;;;;;;;23.74;51.86;93857.59;5088614;28;20031;-81
2023/08/06 08:09:13;;;;;;;5.05;2.28;;;;;;;23.74;51.12;93859.63;5089850;28;20067;-82
2023/08/06 08:11:39;;;;;;;2.80;2.17;;;;;;;23.81;50.85;93853.34;5086518;28;20547;-81
2023/08/06 08:14:04;;;;;;;4.68;2.72;;;;;;;23.88;50.95;93863.84;5089788;28;20478;-82
2023/08/06 08:16:29;;;;;;;3.30;2.40;;;;;;;23.96;50.62;93866.69;5088326;28;20035;-82
2023/08/06 08:18:55;;;;;;;3.25;2.08;;;;;;;24.06;50.18;93864.91;5095446;28;20024;-82
2023/08/06 08:21:20;;;;;;;4.35;2.35;;;;;;;24.09;50.10;93847.72;5090400;28;20067;-82
2023/08/06 08:23:46;;;;;;;4.78;2.67;;;;;;;24.16;49.88;93854.69;5070106;28;20028;-82
2023/08/06 08:26:11;;;;;;;3.28;2.35;;;;;;;24.18;49.61;93854.13;5089152;28;20466;-82
2023/08/06 08:28:36;;;;;;;4.18;3.05;;;;;;;24.23;49.98;93859.59;5086818;28;20504;-81
2023/08/06 08:31:02;;;;;;;4.03;2.97;;;;;;;24.27;48.99;93856.44;5087862;28;20031;-81
2023/08/06 08:33:27;;;;;;;2.83;2.10;;;;;;;24.23;48.61;93862.38;5088083;28;20397;-81
2023/08/06 08:35:53;;;;;;;4.43;3.05;;;;;;;24.32;49.92;93850.66;5088929;28;20107;-81
2023/08/06 08:38:18;;;;;;;3.58;2.20;;;;;;;24.35;49.51;93849.56;5088325;28;20217;-81
2023/08/06 08:40:50;;;;;;;2.58;1.98;;;;;;;24.42;48.78;93856.50;5087172;28;20317;-81
2023/08/06 08:43:15;;;;;;;2.97;2.47;;;;;;;24.53;48.59;93853.38;5088880;28;20032;-81
2023/08/06 08:45:42;;;;;;;3.63;2.50;;;;;;;24.63;48.59;93848.00;5086626;28;20078;-82
2023/08/06 08:48:11;;;;;;;3.47;2.40;;;;;;;24.76;48.25;93852.72;5087961;28;20032;-82
2023/08/06 08:50:36;;;;;;;3.42;2.70;;;;;;;24.83;47.87;93840.75;5086058;28;20059;-82
2023/08/06 08:53:02;;;;;;;3.88;2.58;;;;;;;24.90;47.55;93845.66;5088851;28;20494;-82
2023/08/06 08:55:28;;;;;;;4.88;3.05;;;;;;;24.90;48.18;93832.38;5086261;28;20031;-82
2023/08/06 08:57:53;;;;;;;3.30;2.30;;;;;;;25.05;47.35;93844.94;5088244;28;20359;-80
2023/08/06 09:00:18;;;;;;;2.60;2.20;;;;;;;25.13;47.55;93842.94;5088102;28;20095;-80
2023/08/06 09:02:44;;;;;;;3.60;2.60;;;;;;;25.30;46.90;93839.59;5087601;28;20024;-82
2023/08/06 09:05:09;;;;;;;3.53;2.10;;;;;;;25.39;46.73;93844.66;5088439;28;20028;-82
2023/08/06 09:07:43;;;;;;;3.05;2.45;;;;;;;25.53;46.46;93839.63;5085688;28;20032;-80
2023/08/06 09:10:10;;;;;;;2.70;2.08;;;;;;;25.67;46.32;93849.34;5086927;28;20083;-80
2023/08/06 09:12:36;;;;;;;3.58;2.38;;;;;;;25.78;45.93;93832.13;5087174;28;20045;-81
2023/08/06 09:15:03;;;;;;;4.47;2.53;;;;;;;25.93;45.19;93834.19;5088289;28;20168;-81
2023/08/06 09:17:29;;;;;;;3.78;2.15;;;;;;;26.08;45.02;93833.41;5086521;28;20571;-81
2023/08/06 09:19:54;;;;;;;3.67;2.08;;;;;;;26.28;44.67;93831.69;5086701;28;20020;-81
2023/08/06 09:22:19;;;;;;;2.72;1.92;;;;;;;26.37;43.47;93826.19;5094757;28;20016;-81
2023/08/06 09:24:45;;;;;;;4.15;2.60;;;;;;;26.57;42.41;93827.28;5085473;28;20085;-80
2023/08/06 09:27:14;;;;;;;2.83;1.90;;;;;;;26.72;42.41;93827.22;5070153;28;20028;-80
2023/08/06 09:29:43;;;;;;;3.03;2.15;;;;;;;26.84;42.61;93818.31;5085428;28;20051;-81
2023/08/06 09:32:09;;;;;;;3.63;2.33;;;;;;;26.91;41.31;93806.28;5088023;28;20027;-81
2023/08/06 09:34:34;;;;;;;3.72;2.10;;;;;;;27.10;41.24;93815.03;5087075;28;20016;-81
2023/08/06 09:36:59;;;;;;;3.65;1.92;;;;;;;27.29;40.95;93810.94;5087139;28;20516;-81
2023/08/06 09:39:27;;;;;;;5.80;2.63;;;;;;;27.50;40.19;93802.91;5086444;28;20024;-81
2023/08/06 09:42:01;;;;;;;2.95;1.92;;;;;;;27.63;39.20;93791.31;5086392;28;20425;-82
2023/08/06 09:44:28;;;;;;;3.38;2.10;;;;;;;27.78;39.01;93799.66;5086904;28;20028;-81
2023/08/06 09:46:56;;;;;;;4.25;1.98;;;;;;;27.73;38.03;93799.91;5084981;28;20036;-81
2023/08/06 09:49:33;;;;;;;3.00;1.90;;;;;;;27.85;38.02;93800.94;5087994;28;20020;-81
2023/08/06 09:51:59;;;;;;;2.97;1.83;;;;;;;27.93;38.21;93800.84;5086847;28;20512;-81
2023/08/06 09:54:26;;;;;;;4.72;2.15;;;;;;;28.24;37.24;93804.88;5087051;28;20420;-81
2023/08/06 09:56:53;;;;;;;1.98;1.60;;;;;;;28.21;37.02;93808.84;5087490;28;20111;-81
2023/08/06 09:59:19;;;;;;;2.35;1.70;;;;;;;28.30;36.71;93807.44;5084918;28;20109;-81
2023/08/06 10:01:45;;;;;;;2.53;1.70;;;;;;;28.51;36.30;93807.06;5087589;28;20069;-81
2023/08/06 10:04:15;;;;;;;3.85;1.70;;;;;;;28.56;36.36;93815.28;5086067;28;20831;-81
2023/08/06 10:06:42;;;;;;;3.45;1.73;;;;;;;28.53;35.48;93818.53;5087553;28;20028;-81
2023/08/06 10:09:08;;;;;;;2.28;1.80;;;;;;;28.77;35.39;93814.09;5084887;28;20070;-81
2023/08/06 10:11:36;;;;;;;2.45;1.58;;;;;;;28.77;34.96;93823.31;5086861;28;20536;-81
2023/08/06 10:14:28;;;;;;;2.75;1.73;;;;;;;29.04;34.97;93820.56;5085692;28;20483;-82
2023/08/06 10:16:57;;;;;;;2.85;1.50;;;;;;;28.97;35.67;93824.22;5077497;28;20248;-82
2023/08/06 10:19:25;;;;;;;2.40;1.90;;;;;;;29.00;35.88;93816.66;5069212;28;20035;-81
2023/08/06 10:22:12;;;;;;;2.50;2.00;;;;;;;28.90;36.30;93822.19;5083516;28;20097;-82
2023/08/06 10:24:51;;;;;;;3.35;2.05;;;;;;;28.82;36.92;93818.75;5090984;28;20121;-81
2023/08/06 10:27:39;;;;;;;2.90;2.00;;;;;;;28.72;36.67;93823.56;5088018;28;20120;-81
2023/08/06 10:30:31;;;;;;;4.53;3.25;;;;;;;28.66;36.75;93817.44;5085626;28;20123;-81
2023/08/06 10:33:00;;;;;;;3.80;2.25;;;;;;;28.93;36.19;93823.91;5086362;28;20063;-81
2023/08/06 10:35:31;;;;;;;4.28;2.30;;;;;;;29.12;36.44;93831.75;5086656;28;20032;-81
2023/08/06 10:38:08;;;;;;;2.92;2.00;;;;;;;28.94;35.64;93830.31;5085458;28;20402;-81
2023/08/06 10:40:33;;;;;;;3.22;2.50;;;;;;;28.69;35.92;93833.97;5085717;28;20028;-81
2023/08/06 10:43:02;;;;;;;5.45;2.70;;;;;;;28.50;36.26;93845.13;5085356;28;20027;-81
2023/08/06 10:45:30;;;;;;;3.28;2.35;;;;;;;28.32;36.17;93841.53;5086683;28;20027;-81
2023/08/06 10:47:59;;;;;;;2.38;1.80;;;;;;;28.19;36.88;93853.88;5084479;28;20594;-81
2023/08/06 10:50:26;;;;;;;3.63;2.75;;;;;;;28.12;37.16;93848.31;5085196;28;20036;-80
2023/08/06 10:52:52;;;;;;;4.70;3.22;;;;;;;28.13;37.17;93844.91;5086682;28;20039;-81
2023/08/06 10:55:25;;;;;;;5.72;3.58;;;;;;;28.16;37.10;93851.47;5084053;28;20324;-81
2023/08/06 10:57:51;;;;;;;3.58;2.85;;;;;;;28.24;36.69;93849.34;5086725;28;20043;-81
2023/08/06 11:00:16;;;;;;;5.63;2.80;;;;;;;28.30;36.28;93863.97;5085218;28;20684;-81
2023/08/06 11:02:42;;;;;;;4.32;2.58;;;;;;;28.23;36.55;93865.53;5084868;28;20065;-81
2023/08/06 11:05:08;;;;;;;6.40;3.15;;;;;;;28.01;39.70;93883.44;5083987;28;20549;-81
2023/08/06 11:07:37;;;;;;;7.90;3.38;;;;;;;27.84;42.72;93897.50;5086034;28;20478;-79
2023/08/06 11:10:07;;;;;;;6.38;3.53;;;;;;;27.56;43.19;93882.44;5067776;28;20362;-81
2023/08/06 11:12:33;;;;;;;6.00;3.67;;;;;;;27.41;43.75;93880.47;5083717;28;20046;-80
2023/08/06 11:14:59;;;;;;;6.75;4.10;;;;;;;27.32;43.75;93872.63;5084913;28;20021;-80
2023/08/06 11:17:25;;;;;;;4.43;3.70;;;;;;;27.23;43.41;93873.97;5083666;28;20554;-79
2023/08/06 11:19:52;;;;;;;4.93;3.80;;;;;;;27.19;44.17;93879.28;5084693;28;20060;-79
2023/08/06 11:22:18;;;;;;;4.97;4.10;;;;;;;27.10;43.58;93885.53;5085081;28;20055;-79
2023/08/06 11:24:43;;;;;;;4.10;3.33;;;;;;;26.98;43.54;93882.34;5085907;28;20126;-80
2023/08/06 11:27:15;;;;;;;3.03;2.72;;;;;;;26.94;43.26;93887.63;5087723;28;20028;-81
2023/08/06 11:29:41;;;;;;;3.38;2.83;;;;;;;26.93;43.36;93882.56;5086952;28;20032;-79
2023/08/06 11:32:08;;;;;;;6.28;5.60;;;;;;;26.92;42.99;93890.28;5086225;28;20024;-79